sensor_id;sensor_type;location;lat;lon;timestamp;temperature;humidity
65584;DHT22;70321;43.592;1.456;2023-06-22T00:01:52;22.24;85.84
65584;DHT22;70321;43.592;1.456;2023-06-22T00:04:17;22.32;85.66
65584;DHT22;70321;43.592;1.456;2023-06-22T00:06:42;22.34;85.99
65584;DHT22;70321;43.592;1.456;2023-06-22T00:09:08;22.37;85.83
65584;DHT22;70321;43.592;1.456;2023-06-22T00:11:35;22.30;85.71
65584;DHT22;70321;43.592;1.456;2023-06-22T00:14:01;22.32;85.92
65584;DHT22;70321;43.592;1.456;2023-06-22T00:16:27;22.24;85.74
65584;DHT22;70321;43.592;1.456;2023-06-22T00:18:52;22.24;86.02
65584;DHT22;70321;43.592;1.456;2023-06-22T00:21:17;22.23;86.06
65584;DHT22;70321;43.592;1.456;2023-06-22T00:23:45;22.18;85.94
65584;DHT22;70321;43.592;1.456;2023-06-22T00:26:11;22.23;86.02
65584;DHT22;70321;43.592;1.456;2023-06-22T00:28:36;22.24;85.97
65584;DHT22;70321;43.592;1.456;2023-06-22T00:31:02;22.29;85.96
65584;DHT22;70321;43.592;1.456;2023-06-22T00:33:27;22.33;85.85
65584;DHT22;70321;43.592;1.456;2023-06-22T00:35:53;22.36;85.96
65584;DHT22;70321;43.592;1.456;2023-06-22T00:38:19;22.37;86.12
65584;DHT22;70321;43.592;1.456;2023-06-22T00:40:45;22.39;86.25
65584;DHT22;70321;43.592;1.456;2023-06-22T00:43:11;22.37;86.37
65584;DHT22;70321;43.592;1.456;2023-06-22T00:45:36;22.39;86.66
65584;DHT22;70321;43.592;1.456;2023-06-22T00:48:02;22.41;86.65
65584;DHT22;70321;43.592;1.456;2023-06-22T00:50:33;22.44;86.69
65584;DHT22;70321;43.592;1.456;2023-06-22T00:53:01;22.45;86.78
65584;DHT22;70321;43.592;1.456;2023-06-22T00:55:29;22.45;86.73
65584;DHT22;70321;43.592;1.456;2023-06-22T00:57:55;22.47;86.81
65584;DHT22;70321;43.592;1.456;2023-06-22T01:00:22;22.45;86.73
65584;DHT22;70321;43.592;1.456;2023-06-22T01:02:50;22.48;86.68
65584;DHT22;70321;43.592;1.456;2023-06-22T01:05:18;22.45;86.60
65584;DHT22;70321;43.592;1.456;2023-06-22T01:10:39;22.44;86.59
65584;DHT22;70321;43.592;1.456;2023-06-22T01:15:55;22.34;86.46
65584;DHT22;70321;43.592;1.456;2023-06-22T01:18:22;22.33;86.53
65584;DHT22;70321;43.592;1.456;2023-06-22T01:20:52;22.27;86.60
65584;DHT22;70321;43.592;1.456;2023-06-22T01:23:42;22.17;86.56
65584;DHT22;70321;43.592;1.456;2023-06-22T01:26:18;22.10;86.74
65584;DHT22;70321;43.592;1.456;2023-06-22T01:28:46;22.07;86.83
65584;DHT22;70321;43.592;1.456;2023-06-22T01:31:18;22.04;86.87
65584;DHT22;70321;43.592;1.456;2023-06-22T01:33:54;22.02;86.49
65584;DHT22;70321;43.592;1.456;2023-06-22T01:36:22;21.97;85.84
65584;DHT22;70321;43.592;1.456;2023-06-22T01:38:49;21.89;85.49
65584;DHT22;70321;43.592;1.456;2023-06-22T01:41:16;21.82;85.41
65584;DHT22;70321;43.592;1.456;2023-06-22T01:43:43;21.83;85.42
65584;DHT22;70321;43.592;1.456;2023-06-22T01:46:09;21.78;85.37
65584;DHT22;70321;43.592;1.456;2023-06-22T01:48:35;21.80;85.57
65584;DHT22;70321;43.592;1.456;2023-06-22T01:51:02;21.79;85.35
65584;DHT22;70321;43.592;1.456;2023-06-22T01:53:27;21.76;85.33
65584;DHT22;70321;43.592;1.456;2023-06-22T01:55:53;21.69;85.08
65584;DHT22;70321;43.592;1.456;2023-06-22T01:58:20;21.67;85.24
65584;DHT22;70321;43.592;1.456;2023-06-22T02:01:31;21.62;84.99
65584;DHT22;70321;43.592;1.456;2023-06-22T02:04:05;21.52;85.00
65584;DHT22;70321;43.592;1.456;2023-06-22T02:06:35;21.43;84.03
65584;DHT22;70321;43.592;1.456;2023-06-22T02:09:07;21.35;84.27
65584;DHT22;70321;43.592;1.456;2023-06-22T02:11:34;21.32;84.35
65584;DHT22;70321;43.592;1.456;2023-06-22T02:14:02;21.26;84.34
65584;DHT22;70321;43.592;1.456;2023-06-22T02:16:28;21.24;84.56
65584;DHT22;70321;43.592;1.456;2023-06-22T02:18:57;21.29;84.76
65584;DHT22;70321;43.592;1.456;2023-06-22T02:21:28;21.29;84.70
65584;DHT22;70321;43.592;1.456;2023-06-22T02:23:54;21.26;84.47
65584;DHT22;70321;43.592;1.456;2023-06-22T02:26:19;21.22;84.40
65584;DHT22;70321;43.592;1.456;2023-06-22T02:28:45;21.15;84.46
65584;DHT22;70321;43.592;1.456;2023-06-22T02:31:11;21.09;84.66
65584;DHT22;70321;43.592;1.456;2023-06-22T02:33:36;21.06;85.00
65584;DHT22;70321;43.592;1.456;2023-06-22T02:36:02;21.01;84.58
65584;DHT22;70321;43.592;1.456;2023-06-22T02:38:31;20.99;84.85
65584;DHT22;70321;43.592;1.456;2023-06-22T02:40:58;20.98;85.34
65584;DHT22;70321;43.592;1.456;2023-06-22T02:43:24;20.96;85.29
65584;DHT22;70321;43.592;1.456;2023-06-22T02:45:50;20.96;85.37
65584;DHT22;70321;43.592;1.456;2023-06-22T02:48:15;20.98;85.68
65584;DHT22;70321;43.592;1.456;2023-06-22T02:50:41;21.02;85.70
65584;DHT22;70321;43.592;1.456;2023-06-22T02:53:06;21.02;85.48
65584;DHT22;70321;43.592;1.456;2023-06-22T02:55:31;20.99;85.27
65584;DHT22;70321;43.592;1.456;2023-06-22T02:57:57;20.99;85.08
65584;DHT22;70321;43.592;1.456;2023-06-22T03:00:24;20.98;85.16
65584;DHT22;70321;43.592;1.456;2023-06-22T03:02:55;20.91;84.69
65584;DHT22;70321;43.592;1.456;2023-06-22T03:05:21;20.92;85.18
65584;DHT22;70321;43.592;1.456;2023-06-22T03:07:46;20.95;84.73
65584;DHT22;70321;43.592;1.456;2023-06-22T03:10:13;20.96;85.11
65584;DHT22;70321;43.592;1.456;2023-06-22T03:12:39;20.99;85.40
65584;DHT22;70321;43.592;1.456;2023-06-22T03:15:06;21.04;84.73
65584;DHT22;70321;43.592;1.456;2023-06-22T03:17:32;21.08;84.41
65584;DHT22;70321;43.592;1.456;2023-06-22T03:19:58;20.99;84.69
65584;DHT22;70321;43.592;1.456;2023-06-22T03:22:23;20.96;84.75
65584;DHT22;70321;43.592;1.456;2023-06-22T03:24:49;20.92;84.75
65584;DHT22;70321;43.592;1.456;2023-06-22T03:27:14;20.90;85.13
65584;DHT22;70321;43.592;1.456;2023-06-22T03:29:40;20.90;85.48
65584;DHT22;70321;43.592;1.456;2023-06-22T03:32:05;20.88;85.30
65584;DHT22;70321;43.592;1.456;2023-06-22T03:34:32;20.96;84.29
65584;DHT22;70321;43.592;1.456;2023-06-22T03:37:01;20.94;84.73
65584;DHT22;70321;43.592;1.456;2023-06-22T03:39:26;20.94;84.22
65584;DHT22;70321;43.592;1.456;2023-06-22T03:41:52;20.92;84.94
65584;DHT22;70321;43.592;1.456;2023-06-22T03:44:17;20.88;85.06
65584;DHT22;70321;43.592;1.456;2023-06-22T03:46:43;20.83;85.25
65584;DHT22;70321;43.592;1.456;2023-06-22T03:49:08;20.83;85.22
65584;DHT22;70321;43.592;1.456;2023-06-22T03:51:33;20.78;85.62
65584;DHT22;70321;43.592;1.456;2023-06-22T03:53:59;20.78;85.72
65584;DHT22;70321;43.592;1.456;2023-06-22T03:56:24;20.77;85.85
65584;DHT22;70321;43.592;1.456;2023-06-22T03:58:50;20.71;86.08
65584;DHT22;70321;43.592;1.456;2023-06-22T04:01:15;20.68;86.21
65584;DHT22;70321;43.592;1.456;2023-06-22T04:03:42;20.67;86.28
65584;DHT22;70321;43.592;1.456;2023-06-22T04:06:08;20.65;86.49
65584;DHT22;70321;43.592;1.456;2023-06-22T04:08:34;20.68;86.61
65584;DHT22;70321;43.592;1.456;2023-06-22T04:10:59;20.70;86.67
65584;DHT22;70321;43.592;1.456;2023-06-22T04:13:25;20.70;86.73
65584;DHT22;70321;43.592;1.456;2023-06-22T04:15:50;20.70;86.75
65584;DHT22;70321;43.592;1.456;2023-06-22T04:18:15;20.74;86.48
65584;DHT22;70321;43.592;1.456;2023-06-22T04:20:41;20.78;86.07
65584;DHT22;70321;43.592;1.456;2023-06-22T04:23:06;20.78;86.44
65584;DHT22;70321;43.592;1.456;2023-06-22T04:25:32;20.83;86.59
65584;DHT22;70321;43.592;1.456;2023-06-22T04:27:57;20.81;86.54
65584;DHT22;70321;43.592;1.456;2023-06-22T04:30:22;20.84;86.61
65584;DHT22;70321;43.592;1.456;2023-06-22T04:32:48;20.78;86.69
65584;DHT22;70321;43.592;1.456;2023-06-22T04:35:26;20.78;86.60
65584;DHT22;70321;43.592;1.456;2023-06-22T04:37:53;20.75;86.55
65584;DHT22;70321;43.592;1.456;2023-06-22T04:40:22;20.80;86.09
65584;DHT22;70321;43.592;1.456;2023-06-22T04:42:47;20.77;86.10
65584;DHT22;70321;43.592;1.456;2023-06-22T04:45:18;20.78;86.40
65584;DHT22;70321;43.592;1.456;2023-06-22T04:47:43;20.77;86.47
65584;DHT22;70321;43.592;1.456;2023-06-22T04:50:11;20.71;86.55
65584;DHT22;70321;43.592;1.456;2023-06-22T04:52:37;20.74;86.83
65584;DHT22;70321;43.592;1.456;2023-06-22T04:55:02;20.74;86.64
65584;DHT22;70321;43.592;1.456;2023-06-22T04:57:29;20.71;86.41
65584;DHT22;70321;43.592;1.456;2023-06-22T04:59:58;20.65;86.72
65584;DHT22;70321;43.592;1.456;2023-06-22T05:02:36;20.67;86.68
65584;DHT22;70321;43.592;1.456;2023-06-22T05:05:03;20.67;86.47
65584;DHT22;70321;43.592;1.456;2023-06-22T05:07:33;20.67;86.33
65584;DHT22;70321;43.592;1.456;2023-06-22T05:09:58;20.70;86.63
65584;DHT22;70321;43.592;1.456;2023-06-22T05:12:24;20.73;86.48
65584;DHT22;70321;43.592;1.456;2023-06-22T05:14:52;20.78;86.73
65584;DHT22;70321;43.592;1.456;2023-06-22T05:17:17;20.83;86.52
65584;DHT22;70321;43.592;1.456;2023-06-22T05:19:44;20.84;86.60
65584;DHT22;70321;43.592;1.456;2023-06-22T05:22:16;20.84;86.39
65584;DHT22;70321;43.592;1.456;2023-06-22T05:24:43;20.83;86.39
65584;DHT22;70321;43.592;1.456;2023-06-22T05:27:09;20.85;86.34
65584;DHT22;70321;43.592;1.456;2023-06-22T05:29:36;20.84;86.45
65584;DHT22;70321;43.592;1.456;2023-06-22T05:32:02;20.85;86.47
65584;DHT22;70321;43.592;1.456;2023-06-22T05:34:27;20.85;86.25
65584;DHT22;70321;43.592;1.456;2023-06-22T05:36:53;20.88;86.54
65584;DHT22;70321;43.592;1.456;2023-06-22T05:39:18;20.91;86.32
65584;DHT22;70321;43.592;1.456;2023-06-22T05:41:45;20.94;86.55
65584;DHT22;70321;43.592;1.456;2023-06-22T05:44:11;20.95;86.34
65584;DHT22;70321;43.592;1.456;2023-06-22T05:46:37;20.98;86.26
65584;DHT22;70321;43.592;1.456;2023-06-22T05:49:02;20.99;86.47
65584;DHT22;70321;43.592;1.456;2023-06-22T05:51:27;20.98;86.46
65584;DHT22;70321;43.592;1.456;2023-06-22T05:53:53;21.06;86.25
65584;DHT22;70321;43.592;1.456;2023-06-22T05:56:19;21.04;86.30
65584;DHT22;70321;43.592;1.456;2023-06-22T05:58:45;21.04;86.44
65584;DHT22;70321;43.592;1.456;2023-06-22T06:01:11;21.04;85.93
65584;DHT22;70321;43.592;1.456;2023-06-22T06:03:37;21.06;86.22
65584;DHT22;70321;43.592;1.456;2023-06-22T06:06:09;21.11;86.27
65584;DHT22;70321;43.592;1.456;2023-06-22T06:08:37;21.01;86.39
65584;DHT22;70321;43.592;1.456;2023-06-22T06:11:02;21.02;86.46
65584;DHT22;70321;43.592;1.456;2023-06-22T06:13:28;21.05;86.52
65584;DHT22;70321;43.592;1.456;2023-06-22T06:15:53;21.05;86.34
65584;DHT22;70321;43.592;1.456;2023-06-22T06:18:21;21.12;86.41
65584;DHT22;70321;43.592;1.456;2023-06-22T06:20:46;21.19;86.38
65584;DHT22;70321;43.592;1.456;2023-06-22T06:23:12;21.21;86.15
65584;DHT22;70321;43.592;1.456;2023-06-22T06:25:37;21.25;85.42
65584;DHT22;70321;43.592;1.456;2023-06-22T06:28:03;21.24;85.89
65584;DHT22;70321;43.592;1.456;2023-06-22T06:30:30;21.26;85.72
65584;DHT22;70321;43.592;1.456;2023-06-22T06:32:56;21.29;86.00
65584;DHT22;70321;43.592;1.456;2023-06-22T06:35:22;21.35;86.14
65584;DHT22;70321;43.592;1.456;2023-06-22T06:37:48;21.41;85.68
65584;DHT22;70321;43.592;1.456;2023-06-22T06:40:15;21.43;84.64
65584;DHT22;70321;43.592;1.456;2023-06-22T06:42:45;21.41;85.37
65584;DHT22;70321;43.592;1.456;2023-06-22T06:47:38;21.50;84.20
65584;DHT22;70321;43.592;1.456;2023-06-22T06:50:05;21.48;84.21
65584;DHT22;70321;43.592;1.456;2023-06-22T06:52:30;21.45;85.07
65584;DHT22;70321;43.592;1.456;2023-06-22T06:54:56;21.45;85.45
65584;DHT22;70321;43.592;1.456;2023-06-22T06:57:24;21.46;85.28
65584;DHT22;70321;43.592;1.456;2023-06-22T06:59:55;21.46;85.37
65584;DHT22;70321;43.592;1.456;2023-06-22T07:02:21;21.45;85.45
65584;DHT22;70321;43.592;1.456;2023-06-22T07:04:47;21.49;84.83
65584;DHT22;70321;43.592;1.456;2023-06-22T07:07:12;21.49;85.44
65584;DHT22;70321;43.592;1.456;2023-06-22T07:09:37;21.48;85.39
65584;DHT22;70321;43.592;1.456;2023-06-22T07:12:03;21.49;85.49
65584;DHT22;70321;43.592;1.456;2023-06-22T07:14:29;21.50;85.34
65584;DHT22;70321;43.592;1.456;2023-06-22T07:16:57;21.52;85.20
65584;DHT22;70321;43.592;1.456;2023-06-22T07:19:26;21.56;85.30
65584;DHT22;70321;43.592;1.456;2023-06-22T07:21:55;21.59;85.09
65584;DHT22;70321;43.592;1.456;2023-06-22T07:24:21;21.65;84.82
65584;DHT22;70321;43.592;1.456;2023-06-22T07:26:48;21.66;84.62
65584;DHT22;70321;43.592;1.456;2023-06-22T07:29:18;21.69;84.83
65584;DHT22;70321;43.592;1.456;2023-06-22T07:31:44;21.76;84.66
65584;DHT22;70321;43.592;1.456;2023-06-22T07:34:10;21.76;84.62
65584;DHT22;70321;43.592;1.456;2023-06-22T07:36:35;21.75;84.04
65584;DHT22;70321;43.592;1.456;2023-06-22T07:39:04;21.76;84.32
65584;DHT22;70321;43.592;1.456;2023-06-22T07:41:30;21.80;84.23
65584;DHT22;70321;43.592;1.456;2023-06-22T07:43:56;21.80;83.59
65584;DHT22;70321;43.592;1.456;2023-06-22T07:46:22;21.73;82.07
65584;DHT22;70321;43.592;1.456;2023-06-22T07:48:47;21.72;82.23
65584;DHT22;70321;43.592;1.456;2023-06-22T07:51:13;21.75;82.41
65584;DHT22;70321;43.592;1.456;2023-06-22T07:53:41;21.82;81.93
65584;DHT22;70321;43.592;1.456;2023-06-22T07:56:09;21.82;80.69
65584;DHT22;70321;43.592;1.456;2023-06-22T07:58:35;21.88;80.94
65584;DHT22;70321;43.592;1.456;2023-06-22T08:01:01;21.92;80.07
65584;DHT22;70321;43.592;1.456;2023-06-22T08:03:26;21.93;79.85
65584;DHT22;70321;43.592;1.456;2023-06-22T08:05:52;21.97;79.64
65584;DHT22;70321;43.592;1.456;2023-06-22T08:08:17;22.02;80.34
65584;DHT22;70321;43.592;1.456;2023-06-22T08:10:43;22.10;80.43
65584;DHT22;70321;43.592;1.456;2023-06-22T08:13:09;22.14;79.71
65584;DHT22;70321;43.592;1.456;2023-06-22T08:15:35;22.23;79.02
65584;DHT22;70321;43.592;1.456;2023-06-22T08:18:00;22.24;79.53
65584;DHT22;70321;43.592;1.456;2023-06-22T08:20:26;22.30;79.22
65584;DHT22;70321;43.592;1.456;2023-06-22T08:22:53;22.33;78.70
65584;DHT22;70321;43.592;1.456;2023-06-22T08:25:19;22.33;78.74
65584;DHT22;70321;43.592;1.456;2023-06-22T08:27:45;22.30;78.95
65584;DHT22;70321;43.592;1.456;2023-06-22T08:30:12;22.33;78.77
65584;DHT22;70321;43.592;1.456;2023-06-22T08:32:38;22.34;78.87
65584;DHT22;70321;43.592;1.456;2023-06-22T08:35:03;22.32;78.27
65584;DHT22;70321;43.592;1.456;2023-06-22T08:37:31;22.25;78.15
65584;DHT22;70321;43.592;1.456;2023-06-22T08:39:58;22.20;78.60
65584;DHT22;70321;43.592;1.456;2023-06-22T08:42:24;22.17;79.07
65584;DHT22;70321;43.592;1.456;2023-06-22T08:44:51;22.12;79.53
65584;DHT22;70321;43.592;1.456;2023-06-22T08:47:16;22.03;79.44
65584;DHT22;70321;43.592;1.456;2023-06-22T08:49:42;21.86;79.62
65584;DHT22;70321;43.592;1.456;2023-06-22T08:52:07;21.78;79.91
65584;DHT22;70321;43.592;1.456;2023-06-22T08:54:33;21.75;80.62
65584;DHT22;70321;43.592;1.456;2023-06-22T08:57:00;21.67;81.16
65584;DHT22;70321;43.592;1.456;2023-06-22T08:59:25;21.53;81.26
65584;DHT22;70321;43.592;1.456;2023-06-22T09:01:51;21.52;81.72
65584;DHT22;70321;43.592;1.456;2023-06-22T09:04:16;21.42;82.38
65584;DHT22;70321;43.592;1.456;2023-06-22T09:06:42;21.43;82.69
65584;DHT22;70321;43.592;1.456;2023-06-22T09:09:11;21.38;83.11
65584;DHT22;70321;43.592;1.456;2023-06-22T09:11:37;21.36;83.47
65584;DHT22;70321;43.592;1.456;2023-06-22T09:14:03;21.32;83.94
65584;DHT22;70321;43.592;1.456;2023-06-22T09:16:29;21.32;84.02
65584;DHT22;70321;43.592;1.456;2023-06-22T09:18:54;21.32;84.16
65584;DHT22;70321;43.592;1.456;2023-06-22T09:21:20;21.32;83.95
65584;DHT22;70321;43.592;1.456;2023-06-22T09:23:45;21.29;84.44
65584;DHT22;70321;43.592;1.456;2023-06-22T09:26:17;21.29;84.59
65584;DHT22;70321;43.592;1.456;2023-06-22T09:28:43;21.34;84.22
65584;DHT22;70321;43.592;1.456;2023-06-22T09:31:08;21.36;84.43
65584;DHT22;70321;43.592;1.456;2023-06-22T09:33:33;21.39;84.47
65584;DHT22;70321;43.592;1.456;2023-06-22T09:35:59;21.43;84.33
65584;DHT22;70321;43.592;1.456;2023-06-22T09:38:24;21.45;84.65
65584;DHT22;70321;43.592;1.456;2023-06-22T09:40:50;21.42;84.10
65584;DHT22;70321;43.592;1.456;2023-06-22T09:43:15;21.46;84.74
65584;DHT22;70321;43.592;1.456;2023-06-22T09:45:41;21.50;84.46
65584;DHT22;70321;43.592;1.456;2023-06-22T09:48:06;21.55;84.73
65584;DHT22;70321;43.592;1.456;2023-06-22T09:50:31;21.59;84.04
65584;DHT22;70321;43.592;1.456;2023-06-22T09:52:57;21.60;84.08
65584;DHT22;70321;43.592;1.456;2023-06-22T09:55:22;21.63;83.86
65584;DHT22;70321;43.592;1.456;2023-06-22T09:57:48;21.69;83.83
65584;DHT22;70321;43.592;1.456;2023-06-22T10:00:16;21.72;83.86
65584;DHT22;70321;43.592;1.456;2023-06-22T10:02:42;21.75;83.70
65584;DHT22;70321;43.592;1.456;2023-06-22T10:05:10;21.73;83.55
65584;DHT22;70321;43.592;1.456;2023-06-22T10:07:41;21.76;83.62
65584;DHT22;70321;43.592;1.456;2023-06-22T10:10:09;21.78;83.70
65584;DHT22;70321;43.592;1.456;2023-06-22T10:12:35;21.80;83.70
65584;DHT22;70321;43.592;1.456;2023-06-22T10:15:00;21.83;83.84
65584;DHT22;70321;43.592;1.456;2023-06-22T10:17:26;21.78;83.68
65584;DHT22;70321;43.592;1.456;2023-06-22T10:19:51;21.89;83.17
65584;DHT22;70321;43.592;1.456;2023-06-22T10:22:17;21.99;83.44
65584;DHT22;70321;43.592;1.456;2023-06-22T10:24:43;22.04;82.74
65584;DHT22;70321;43.592;1.456;2023-06-22T10:27:12;22.17;82.99
65584;DHT22;70321;43.592;1.456;2023-06-22T10:29:39;22.30;82.59
65584;DHT22;70321;43.592;1.456;2023-06-22T10:32:08;22.41;82.02
65584;DHT22;70321;43.592;1.456;2023-06-22T10:34:33;22.53;80.54
65584;DHT22;70321;43.592;1.456;2023-06-22T10:36:59;22.67;79.61
65584;DHT22;70321;43.592;1.456;2023-06-22T10:39:25;22.75;79.62
65584;DHT22;70321;43.592;1.456;2023-06-22T10:41:50;22.81;79.30
65584;DHT22;70321;43.592;1.456;2023-06-22T10:44:16;22.88;79.12
65584;DHT22;70321;43.592;1.456;2023-06-22T10:46:42;22.95;78.89
65584;DHT22;70321;43.592;1.456;2023-06-22T10:49:08;22.94;78.57
65584;DHT22;70321;43.592;1.456;2023-06-22T10:51:33;22.97;77.54
65584;DHT22;70321;43.592;1.456;2023-06-22T10:53:59;22.94;75.77
65584;DHT22;70321;43.592;1.456;2023-06-22T10:56:24;23.05;75.50
65584;DHT22;70321;43.592;1.456;2023-06-22T10:58:50;23.05;75.41
65584;DHT22;70321;43.592;1.456;2023-06-22T11:01:15;23.15;74.46
65584;DHT22;70321;43.592;1.456;2023-06-22T11:03:43;23.16;74.67
65584;DHT22;70321;43.592;1.456;2023-06-22T11:06:09;23.25;74.85
65584;DHT22;70321;43.592;1.456;2023-06-22T11:08:45;23.30;74.19
65584;DHT22;70321;43.592;1.456;2023-06-22T11:11:10;23.39;73.42
65584;DHT22;70321;43.592;1.456;2023-06-22T11:13:36;23.41;73.63
65584;DHT22;70321;43.592;1.456;2023-06-22T11:16:01;23.43;73.00
65584;DHT22;70321;43.592;1.456;2023-06-22T11:18:26;23.53;73.16
65584;DHT22;70321;43.592;1.456;2023-06-22T11:20:52;23.53;72.39
65584;DHT22;70321;43.592;1.456;2023-06-22T11:23:18;23.58;72.88
65584;DHT22;70321;43.592;1.456;2023-06-22T11:25:44;23.62;72.64
65584;DHT22;70321;43.592;1.456;2023-06-22T11:28:12;23.72;72.71
65584;DHT22;70321;43.592;1.456;2023-06-22T11:30:38;23.84;73.18
65584;DHT22;70321;43.592;1.456;2023-06-22T11:33:03;23.89;72.28
65584;DHT22;70321;43.592;1.456;2023-06-22T11:35:29;23.94;71.59
65584;DHT22;70321;43.592;1.456;2023-06-22T11:37:54;23.97;71.02
65584;DHT22;70321;43.592;1.456;2023-06-22T11:40:21;24.02;71.79
65584;DHT22;70321;43.592;1.456;2023-06-22T11:42:48;24.07;71.70
65584;DHT22;70321;43.592;1.456;2023-06-22T11:45:13;24.04;71.14
65584;DHT22;70321;43.592;1.456;2023-06-22T11:47:43;24.07;71.01
65584;DHT22;70321;43.592;1.456;2023-06-22T11:50:09;24.09;71.54
65584;DHT22;70321;43.592;1.456;2023-06-22T11:52:34;24.07;70.92
65584;DHT22;70321;43.592;1.456;2023-06-22T11:55:03;24.07;70.91
65584;DHT22;70321;43.592;1.456;2023-06-22T11:57:33;24.16;71.33
65584;DHT22;70321;43.592;1.456;2023-06-22T11:59:59;24.26;71.44
65584;DHT22;70321;43.592;1.456;2023-06-22T12:02:24;24.26;69.05
65584;DHT22;70321;43.592;1.456;2023-06-22T12:04:50;24.28;70.19
65584;DHT22;70321;43.592;1.456;2023-06-22T12:07:18;24.31;69.23
65584;DHT22;70321;43.592;1.456;2023-06-22T12:09:43;24.36;68.55
65584;DHT22;70321;43.592;1.456;2023-06-22T12:12:09;24.33;68.78
65584;DHT22;70321;43.592;1.456;2023-06-22T12:14:35;24.37;69.46
65584;DHT22;70321;43.592;1.456;2023-06-22T12:17:00;24.51;70.27
65584;DHT22;70321;43.592;1.456;2023-06-22T12:19:26;24.61;70.21
65584;DHT22;70321;43.592;1.456;2023-06-22T12:23:45;24.79;69.20
65584;DHT22;70321;43.592;1.456;2023-06-22T12:26:11;24.84;68.99
65584;DHT22;70321;43.592;1.456;2023-06-22T12:28:36;24.84;68.35
65584;DHT22;70321;43.592;1.456;2023-06-22T12:31:02;24.89;67.82
65584;DHT22;70321;43.592;1.456;2023-06-22T12:33:27;24.84;67.48
65584;DHT22;70321;43.592;1.456;2023-06-22T12:35:52;24.82;68.00
65584;DHT22;70321;43.592;1.456;2023-06-22T12:38:18;24.75;68.43
65584;DHT22;70321;43.592;1.456;2023-06-22T12:40:43;24.72;68.18
65584;DHT22;70321;43.592;1.456;2023-06-22T12:43:09;24.75;67.91
65584;DHT22;70321;43.592;1.456;2023-06-22T12:45:34;24.81;68.46
65584;DHT22;70321;43.592;1.456;2023-06-22T12:48:00;24.82;67.53
65584;DHT22;70321;43.592;1.456;2023-06-22T12:50:25;24.79;67.53
65584;DHT22;70321;43.592;1.456;2023-06-22T12:52:51;24.81;68.52
65584;DHT22;70321;43.592;1.456;2023-06-22T12:55:16;24.77;69.49
65584;DHT22;70321;43.592;1.456;2023-06-22T12:57:42;24.69;69.27
65584;DHT22;70321;43.592;1.456;2023-06-22T13:00:07;24.57;69.17
65584;DHT22;70321;43.592;1.456;2023-06-22T13:02:35;24.56;70.46
65584;DHT22;70321;43.592;1.456;2023-06-22T13:05:01;24.50;70.40
65584;DHT22;70321;43.592;1.456;2023-06-22T13:07:27;24.46;70.21
65584;DHT22;70321;43.592;1.456;2023-06-22T13:09:53;24.37;71.13
65584;DHT22;70321;43.592;1.456;2023-06-22T13:12:22;24.38;71.39
65584;DHT22;70321;43.592;1.456;2023-06-22T13:14:48;24.38;71.40
65584;DHT22;70321;43.592;1.456;2023-06-22T13:17:13;24.46;71.84
65584;DHT22;70321;43.592;1.456;2023-06-22T13:19:40;24.47;70.86
65584;DHT22;70321;43.592;1.456;2023-06-22T13:24:54;24.50;70.72
65584;DHT22;70321;43.592;1.456;2023-06-22T13:27:20;24.56;70.99
65584;DHT22;70321;43.592;1.456;2023-06-22T13:29:45;24.57;70.91
65584;DHT22;70321;43.592;1.456;2023-06-22T13:32:10;24.56;70.77
65584;DHT22;70321;43.592;1.456;2023-06-22T13:34:36;24.53;71.10
65584;DHT22;70321;43.592;1.456;2023-06-22T13:37:01;24.48;70.67
65584;DHT22;70321;43.592;1.456;2023-06-22T13:39:27;24.47;71.00
65584;DHT22;70321;43.592;1.456;2023-06-22T13:41:53;24.47;71.65
65584;DHT22;70321;43.592;1.456;2023-06-22T13:44:18;24.53;70.75
65584;DHT22;70321;43.592;1.456;2023-06-22T13:46:44;24.65;71.56
65584;DHT22;70321;43.592;1.456;2023-06-22T13:49:09;24.77;71.20
65584;DHT22;70321;43.592;1.456;2023-06-22T13:51:36;24.85;71.13
65584;DHT22;70321;43.592;1.456;2023-06-22T13:54:01;24.92;70.93
65584;DHT22;70321;43.592;1.456;2023-06-22T13:56:26;24.91;71.05
65584;DHT22;70321;43.592;1.456;2023-06-22T13:58:52;24.94;70.91
65584;DHT22;70321;43.592;1.456;2023-06-22T14:01:17;24.98;70.29
65584;DHT22;70321;43.592;1.456;2023-06-22T14:03:43;25.05;70.48
65584;DHT22;70321;43.592;1.456;2023-06-22T14:06:10;25.04;70.16
65584;DHT22;70321;43.592;1.456;2023-06-22T14:08:37;25.08;70.31
65584;DHT22;70321;43.592;1.456;2023-06-22T14:11:02;25.08;69.10
65584;DHT22;70321;43.592;1.456;2023-06-22T14:13:28;25.09;69.81
65584;DHT22;70321;43.592;1.456;2023-06-22T14:15:53;25.09;70.69
65584;DHT22;70321;43.592;1.456;2023-06-22T14:18:19;25.08;70.25
65584;DHT22;70321;43.592;1.456;2023-06-22T14:20:45;25.12;70.91
65584;DHT22;70321;43.592;1.456;2023-06-22T14:23:11;25.07;70.34
65584;DHT22;70321;43.592;1.456;2023-06-22T14:25:36;25.11;71.83
65584;DHT22;70321;43.592;1.456;2023-06-22T14:28:02;25.12;71.27
65584;DHT22;70321;43.592;1.456;2023-06-22T14:30:27;25.09;71.54
65584;DHT22;70321;43.592;1.456;2023-06-22T14:32:53;25.11;70.88
65584;DHT22;70321;43.592;1.456;2023-06-22T14:35:18;25.05;71.17
65584;DHT22;70321;43.592;1.456;2023-06-22T14:37:44;25.11;71.59
65584;DHT22;70321;43.592;1.456;2023-06-22T14:40:10;25.07;71.58
65584;DHT22;70321;43.592;1.456;2023-06-22T14:42:36;25.04;71.60
65584;DHT22;70321;43.592;1.456;2023-06-22T14:45:01;24.98;71.85
65584;DHT22;70321;43.592;1.456;2023-06-22T14:47:27;24.84;70.17
65584;DHT22;70321;43.592;1.456;2023-06-22T14:49:52;24.75;70.69
65584;DHT22;70321;43.592;1.456;2023-06-22T14:52:17;24.71;68.99
65584;DHT22;70321;43.592;1.456;2023-06-22T14:54:43;24.71;68.74
65584;DHT22;70321;43.592;1.456;2023-06-22T14:57:08;24.68;68.35
65584;DHT22;70321;43.592;1.456;2023-06-22T14:59:34;24.68;68.40
65584;DHT22;70321;43.592;1.456;2023-06-22T15:01:59;24.67;68.56
65584;DHT22;70321;43.592;1.456;2023-06-22T15:04:24;24.63;68.76
65584;DHT22;70321;43.592;1.456;2023-06-22T15:06:52;24.63;68.58
65584;DHT22;70321;43.592;1.456;2023-06-22T15:09:17;24.56;67.40
65584;DHT22;70321;43.592;1.456;2023-06-22T15:11:43;24.58;67.51
65584;DHT22;70321;43.592;1.456;2023-06-22T15:14:09;24.64;68.07
65584;DHT22;70321;43.592;1.456;2023-06-22T15:16:34;24.71;68.33
65584;DHT22;70321;43.592;1.456;2023-06-22T15:19:00;24.78;68.36
65584;DHT22;70321;43.592;1.456;2023-06-22T15:21:25;24.84;68.86
65584;DHT22;70321;43.592;1.456;2023-06-22T15:23:51;24.88;69.40
65584;DHT22;70321;43.592;1.456;2023-06-22T15:26:16;24.89;69.85
65584;DHT22;70321;43.592;1.456;2023-06-22T15:28:42;24.88;69.15
65584;DHT22;70321;43.592;1.456;2023-06-22T15:31:08;24.85;68.20
65584;DHT22;70321;43.592;1.456;2023-06-22T15:33:33;24.77;68.97
65584;DHT22;70321;43.592;1.456;2023-06-22T15:35:59;24.64;68.96
65584;DHT22;70321;43.592;1.456;2023-06-22T15:38:29;24.58;69.81